sensor_id;sensor_type;location;lat;lon;timestamp;temperature;humidity
69359;HTU21D;56520;49.066;8.660;2023-02-22T00:00:42;2.74;88.47
69359;HTU21D;56520;49.066;8.660;2023-02-22T00:03:17;2.73;88.30
69359;HTU21D;56520;49.066;8.660;2023-02-22T00:05:53;2.73;88.25
69359;HTU21D;56520;49.066;8.660;2023-02-22T00:08:22;2.73;88.10
69359;HTU21D;56520;49.066;8.660;2023-02-22T00:10:48;2.72;88.04
69359;HTU21D;56520;49.066;8.660;2023-02-22T00:13:18;2.73;88.19
69359;HTU21D;56520;49.066;8.660;2023-02-22T00:15:49;2.71;88.46
69359;HTU21D;56520;49.066;8.660;2023-02-22T00:18:16;2.70;88.43
69359;HTU21D;56520;49.066;8.660;2023-02-22T00:20:42;2.69;88.60
69359;HTU21D;56520;49.066;8.660;2023-02-22T00:23:13;2.67;88.69
69359;HTU21D;56520;49.066;8.660;2023-02-22T00:25:38;2.66;89.05
69359;HTU21D;56520;49.066;8.660;2023-02-22T00:28:03;2.65;89.45
69359;HTU21D;56520;49.066;8.660;2023-02-22T00:30:30;2.64;89.41
69359;HTU21D;56520;49.066;8.660;2023-02-22T00:32:56;2.61;89.46
69359;HTU21D;56520;49.066;8.660;2023-02-22T00:35:27;2.62;89.42
69359;HTU21D;56520;49.066;8.660;2023-02-22T00:37:55;2.62;89.35
69359;HTU21D;56520;49.066;8.660;2023-02-22T00:40:24;2.61;89.21
69359;HTU21D;56520;49.066;8.660;2023-02-22T00:42:50;2.62;89.57
69359;HTU21D;56520;49.066;8.660;2023-02-22T00:45:16;2.61;89.35
69359;HTU21D;56520;49.066;8.660;2023-02-22T00:47:42;2.64;89.66
69359;HTU21D;56520;49.066;8.660;2023-02-22T00:50:08;2.62;90.07
69359;HTU21D;56520;49.066;8.660;2023-02-22T00:52:34;2.62;89.84
69359;HTU21D;56520;49.066;8.660;2023-02-22T00:55:00;2.60;89.66
69359;HTU21D;56520;49.066;8.660;2023-02-22T00:57:26;2.57;89.58
69359;HTU21D;56520;49.066;8.660;2023-02-22T00:59:51;2.55;89.92
69359;HTU21D;56520;49.066;8.660;2023-02-22T01:02:17;2.54;90.19
69359;HTU21D;56520;49.066;8.660;2023-02-22T01:04:43;2.52;90.27
69359;HTU21D;56520;49.066;8.660;2023-02-22T01:07:08;2.47;90.37
69359;HTU21D;56520;49.066;8.660;2023-02-22T01:09:34;2.44;90.28
69359;HTU21D;56520;49.066;8.660;2023-02-22T01:12:00;2.41;90.18
69359;HTU21D;56520;49.066;8.660;2023-02-22T01:14:26;2.37;90.11
69359;HTU21D;56520;49.066;8.660;2023-02-22T01:16:53;2.34;89.98
69359;HTU21D;56520;49.066;8.660;2023-02-22T01:19:20;2.32;89.99
69359;HTU21D;56520;49.066;8.660;2023-02-22T01:21:46;2.31;89.99
69359;HTU21D;56520;49.066;8.660;2023-02-22T01:24:12;2.29;89.95
69359;HTU21D;56520;49.066;8.660;2023-02-22T01:26:41;2.28;90.18
69359;HTU21D;56520;49.066;8.660;2023-02-22T01:29:07;2.27;90.29
69359;HTU21D;56520;49.066;8.660;2023-02-22T01:31:32;2.23;90.28
69359;HTU21D;56520;49.066;8.660;2023-02-22T01:33:58;2.20;90.32
69359;HTU21D;56520;49.066;8.660;2023-02-22T01:36:23;2.17;90.44
69359;HTU21D;56520;49.066;8.660;2023-02-22T01:38:48;2.16;90.66
69359;HTU21D;56520;49.066;8.660;2023-02-22T01:41:14;2.13;90.73
69359;HTU21D;56520;49.066;8.660;2023-02-22T01:43:42;2.12;90.75
69359;HTU21D;56520;49.066;8.660;2023-02-22T01:46:21;2.11;90.76
69359;HTU21D;56520;49.066;8.660;2023-02-22T01:48:57;2.08;90.56
69359;HTU21D;56520;49.066;8.660;2023-02-22T01:51:30;2.02;90.40
69359;HTU21D;56520;49.066;8.660;2023-02-22T01:54:41;2.01;90.45
69359;HTU21D;56520;49.066;8.660;2023-02-22T01:57:24;1.99;90.42
69359;HTU21D;56520;49.066;8.660;2023-02-22T01:59:54;1.99;90.73
69359;HTU21D;56520;49.066;8.660;2023-02-22T02:02:21;2.00;91.01
69359;HTU21D;56520;49.066;8.660;2023-02-22T02:04:50;2.02;91.07
69359;HTU21D;56520;49.066;8.660;2023-02-22T02:07:19;2.02;90.86
69359;HTU21D;56520;49.066;8.660;2023-02-22T02:10:01;2.01;90.80
69359;HTU21D;56520;49.066;8.660;2023-02-22T02:12:30;2.02;90.78
69359;HTU21D;56520;49.066;8.660;2023-02-22T02:15:35;2.07;90.87
69359;HTU21D;56520;49.066;8.660;2023-02-22T02:18:04;2.07;90.78
69359;HTU21D;56520;49.066;8.660;2023-02-22T02:37:56;2.21;90.57
69359;HTU21D;56520;49.066;8.660;2023-02-22T02:40:35;2.16;90.57
69359;HTU21D;56520;49.066;8.660;2023-02-22T02:43:37;2.09;90.47
69359;HTU21D;56520;49.066;8.660;2023-02-22T02:48:52;1.97;90.44
69359;HTU21D;56520;49.066;8.660;2023-02-22T02:51:22;1.92;90.53
69359;HTU21D;56520;49.066;8.660;2023-02-22T02:53:50;1.90;90.66
69359;HTU21D;56520;49.066;8.660;2023-02-22T02:56:16;1.90;90.74
69359;HTU21D;56520;49.066;8.660;2023-02-22T02:58:49;1.87;90.71
69359;HTU21D;56520;49.066;8.660;2023-02-22T03:01:41;1.84;90.69
69359;HTU21D;56520;49.066;8.660;2023-02-22T03:18:41;1.78;90.96
69359;HTU21D;56520;49.066;8.660;2023-02-22T03:23:58;1.75;90.81
69359;HTU21D;56520;49.066;8.660;2023-02-22T03:29:17;1.80;91.03
69359;HTU21D;56520;49.066;8.660;2023-02-22T03:31:56;1.80;90.91
69359;HTU21D;56520;49.066;8.660;2023-02-22T03:34:31;1.79;90.82
69359;HTU21D;56520;49.066;8.660;2023-02-22T03:37:10;1.79;90.82
69359;HTU21D;56520;49.066;8.660;2023-02-22T03:39:39;1.76;90.77
69359;HTU21D;56520;49.066;8.660;2023-02-22T03:42:10;1.72;90.79
69359;HTU21D;56520;49.066;8.660;2023-02-22T03:44:37;1.68;90.82
69359;HTU21D;56520;49.066;8.660;2023-02-22T03:47:09;1.66;90.86
69359;HTU21D;56520;49.066;8.660;2023-02-22T03:49:52;1.65;90.92
69359;HTU21D;56520;49.066;8.660;2023-02-22T03:52:20;1.62;90.93
69359;HTU21D;56520;49.066;8.660;2023-02-22T03:54:48;1.61;91.05
69359;HTU21D;56520;49.066;8.660;2023-02-22T03:57:43;1.57;91.11
69359;HTU21D;56520;49.066;8.660;2023-02-22T04:00:13;1.55;91.11
69359;HTU21D;56520;49.066;8.660;2023-02-22T04:02:40;1.54;91.22
69359;HTU21D;56520;49.066;8.660;2023-02-22T04:05:06;1.53;91.43
69359;HTU21D;56520;49.066;8.660;2023-02-22T04:07:31;1.52;91.44
69359;HTU21D;56520;49.066;8.660;2023-02-22T04:09:57;1.51;91.71
69359;HTU21D;56520;49.066;8.660;2023-02-22T04:12:22;1.50;91.90
69359;HTU21D;56520;49.066;8.660;2023-02-22T04:14:48;1.48;91.98
69359;HTU21D;56520;49.066;8.660;2023-02-22T04:17:13;1.42;91.95
69359;HTU21D;56520;49.066;8.660;2023-02-22T04:19:38;1.38;91.95
69359;HTU21D;56520;49.066;8.660;2023-02-22T04:22:04;1.36;92.02
69359;HTU21D;56520;49.066;8.660;2023-02-22T04:24:29;1.33;92.00
69359;HTU21D;56520;49.066;8.660;2023-02-22T04:26:54;1.32;92.10
69359;HTU21D;56520;49.066;8.660;2023-02-22T04:29:20;1.28;92.08
69359;HTU21D;56520;49.066;8.660;2023-02-22T04:31:45;1.27;92.09
69359;HTU21D;56520;49.066;8.660;2023-02-22T04:34:11;1.25;92.05
69359;HTU21D;56520;49.066;8.660;2023-02-22T04:36:36;1.25;91.92
69359;HTU21D;56520;49.066;8.660;2023-02-22T04:39:01;1.22;91.94
69359;HTU21D;56520;49.066;8.660;2023-02-22T04:41:27;1.24;91.95
69359;HTU21D;56520;49.066;8.660;2023-02-22T04:43:52;1.24;92.09
69359;HTU21D;56520;49.066;8.660;2023-02-22T04:46:18;1.24;92.34
69359;HTU21D;56520;49.066;8.660;2023-02-22T04:48:44;1.22;92.41
69359;HTU21D;56520;49.066;8.660;2023-02-22T04:51:09;1.19;92.45
69359;HTU21D;56520;49.066;8.660;2023-02-22T04:53:35;1.17;92.62
69359;HTU21D;56520;49.066;8.660;2023-02-22T04:56:00;1.17;92.60
69359;HTU21D;56520;49.066;8.660;2023-02-22T04:58:26;1.13;92.66
69359;HTU21D;56520;49.066;8.660;2023-02-22T05:00:51;1.12;92.66
69359;HTU21D;56520;49.066;8.660;2023-02-22T05:03:17;1.11;92.69
69359;HTU21D;56520;49.066;8.660;2023-02-22T05:05:43;1.10;92.59
69359;HTU21D;56520;49.066;8.660;2023-02-22T05:08:08;1.08;92.54
69359;HTU21D;56520;49.066;8.660;2023-02-22T05:10:33;1.09;92.54
69359;HTU21D;56520;49.066;8.660;2023-02-22T05:12:59;1.09;92.57
69359;HTU21D;56520;49.066;8.660;2023-02-22T05:15:24;1.08;92.57
69359;HTU21D;56520;49.066;8.660;2023-02-22T05:17:50;1.11;92.54
69359;HTU21D;56520;49.066;8.660;2023-02-22T05:20:31;1.11;92.46
69359;HTU21D;56520;49.066;8.660;2023-02-22T05:22:59;1.13;92.50
69359;HTU21D;56520;49.066;8.660;2023-02-22T05:25:25;1.12;92.53
69359;HTU21D;56520;49.066;8.660;2023-02-22T05:27:51;1.12;92.54
69359;HTU21D;56520;49.066;8.660;2023-02-22T05:30:19;1.11;92.58
69359;HTU21D;56520;49.066;8.660;2023-02-22T05:32:45;1.12;92.67
69359;HTU21D;56520;49.066;8.660;2023-02-22T05:35:10;1.12;92.86
69359;HTU21D;56520;49.066;8.660;2023-02-22T05:37:36;1.09;93.11
69359;HTU21D;56520;49.066;8.660;2023-02-22T05:40:01;1.09;93.19
69359;HTU21D;56520;49.066;8.660;2023-02-22T05:42:29;1.05;93.13
69359;HTU21D;56520;49.066;8.660;2023-02-22T05:44:55;1.03;93.14
69359;HTU21D;56520;49.066;8.660;2023-02-22T05:47:20;1.01;93.19
69359;HTU21D;56520;49.066;8.660;2023-02-22T05:49:45;0.99;93.27
69359;HTU21D;56520;49.066;8.660;2023-02-22T05:52:11;0.97;93.23
69359;HTU21D;56520;49.066;8.660;2023-02-22T05:54:36;0.94;93.30
69359;HTU21D;56520;49.066;8.660;2023-02-22T05:57:01;0.92;93.38
69359;HTU21D;56520;49.066;8.660;2023-02-22T05:59:27;0.89;93.40
69359;HTU21D;56520;49.066;8.660;2023-02-22T06:01:53;0.86;93.40
69359;HTU21D;56520;49.066;8.660;2023-02-22T06:04:18;0.83;93.50
69359;HTU21D;56520;49.066;8.660;2023-02-22T06:06:44;0.80;93.83
69359;HTU21D;56520;49.066;8.660;2023-02-22T06:09:09;0.79;93.86
69359;HTU21D;56520;49.066;8.660;2023-02-22T06:11:35;0.76;93.85
69359;HTU21D;56520;49.066;8.660;2023-02-22T06:14:01;0.74;93.88
69359;HTU21D;56520;49.066;8.660;2023-02-22T06:16:26;0.71;93.90
69359;HTU21D;56520;49.066;8.660;2023-02-22T06:18:52;0.68;93.88
69359;HTU21D;56520;49.066;8.660;2023-02-22T06:21:17;0.66;93.85
69359;HTU21D;56520;49.066;8.660;2023-02-22T06:23:43;0.65;93.79
69359;HTU21D;56520;49.066;8.660;2023-02-22T06:26:08;0.65;93.77
69359;HTU21D;56520;49.066;8.660;2023-02-22T06:28:33;0.66;93.73
69359;HTU21D;56520;49.066;8.660;2023-02-22T06:30:59;0.69;93.74
69359;HTU21D;56520;49.066;8.660;2023-02-22T06:33:24;0.72;93.72
69359;HTU21D;56520;49.066;8.660;2023-02-22T06:35:50;0.73;93.80
69359;HTU21D;56520;49.066;8.660;2023-02-22T06:38:21;0.77;93.99
69359;HTU21D;56520;49.066;8.660;2023-02-22T06:40:47;0.78;93.98
69359;HTU21D;56520;49.066;8.660;2023-02-22T06:43:13;0.79;93.99
69359;HTU21D;56520;49.066;8.660;2023-02-22T06:45:38;0.80;93.86
69359;HTU21D;56520;49.066;8.660;2023-02-22T06:48:03;0.82;93.76
69359;HTU21D;56520;49.066;8.660;2023-02-22T06:50:29;0.87;93.76
69359;HTU21D;56520;49.066;8.660;2023-02-22T06:52:56;0.91;93.65
69359;HTU21D;56520;49.066;8.660;2023-02-22T06:55:27;0.99;93.91
69359;HTU21D;56520;49.066;8.660;2023-02-22T06:57:53;1.09;94.12
69359;HTU21D;56520;49.066;8.660;2023-02-22T07:00:21;1.17;94.27
69359;HTU21D;56520;49.066;8.660;2023-02-22T07:02:47;1.23;94.25
69359;HTU21D;56520;49.066;8.660;2023-02-22T07:05:14;1.31;94.27
69359;HTU21D;56520;49.066;8.660;2023-02-22T07:07:40;1.37;94.33
69359;HTU21D;56520;49.066;8.660;2023-02-22T07:10:07;1.43;94.43
69359;HTU21D;56520;49.066;8.660;2023-02-22T07:12:33;1.50;94.52
69359;HTU21D;56520;49.066;8.660;2023-02-22T07:14:59;1.55;94.56
69359;HTU21D;56520;49.066;8.660;2023-02-22T07:17:25;1.61;94.46
69359;HTU21D;56520;49.066;8.660;2023-02-22T07:19:50;1.66;94.33
69359;HTU21D;56520;49.066;8.660;2023-02-22T07:22:16;1.72;94.25
69359;HTU21D;56520;49.066;8.660;2023-02-22T07:24:41;1.79;94.24
69359;HTU21D;56520;49.066;8.660;2023-02-22T07:27:07;1.86;94.18
69359;HTU21D;56520;49.066;8.660;2023-02-22T07:29:32;1.93;94.14
69359;HTU21D;56520;49.066;8.660;2023-02-22T07:32:00;2.00;94.11
69359;HTU21D;56520;49.066;8.660;2023-02-22T07:34:25;2.10;94.05
69359;HTU21D;56520;49.066;8.660;2023-02-22T07:36:51;2.19;93.95
69359;HTU21D;56520;49.066;8.660;2023-02-22T07:39:16;2.27;93.85
69359;HTU21D;56520;49.066;8.660;2023-02-22T07:41:42;2.37;93.69
69359;HTU21D;56520;49.066;8.660;2023-02-22T07:44:07;2.49;93.45
69359;HTU21D;56520;49.066;8.660;2023-02-22T07:46:32;2.61;93.27
69359;HTU21D;56520;49.066;8.660;2023-02-22T07:48:58;2.74;93.04
69359;HTU21D;56520;49.066;8.660;2023-02-22T07:51:23;2.88;92.83
69359;HTU21D;56520;49.066;8.660;2023-02-22T07:53:49;3.02;92.57
69359;HTU21D;56520;49.066;8.660;2023-02-22T07:56:14;3.13;92.32
69359;HTU21D;56520;49.066;8.660;2023-02-22T07:58:40;3.26;92.14
69359;HTU21D;56520;49.066;8.660;2023-02-22T08:01:05;3.39;91.83
69359;HTU21D;56520;49.066;8.660;2023-02-22T08:03:33;3.49;91.57
69359;HTU21D;56520;49.066;8.660;2023-02-22T08:06:01;3.62;91.17
69359;HTU21D;56520;49.066;8.660;2023-02-22T08:08:29;3.74;91.03
69359;HTU21D;56520;49.066;8.660;2023-02-22T08:10:55;3.85;90.59
69359;HTU21D;56520;49.066;8.660;2023-02-22T08:13:21;3.99;90.41
69359;HTU21D;56520;49.066;8.660;2023-02-22T08:15:49;4.10;89.76
69359;HTU21D;56520;49.066;8.660;2023-02-22T08:18:16;4.20;89.40
69359;HTU21D;56520;49.066;8.660;2023-02-22T08:20:44;4.31;89.38
69359;HTU21D;56520;49.066;8.660;2023-02-22T08:23:11;4.44;89.21
69359;HTU21D;56520;49.066;8.660;2023-02-22T08:25:37;4.58;89.31
69359;HTU21D;56520;49.066;8.660;2023-02-22T08:28:05;4.74;89.13
69359;HTU21D;56520;49.066;8.660;2023-02-22T08:30:32;4.89;88.81
69359;HTU21D;56520;49.066;8.660;2023-02-22T08:32:59;5.02;88.55
69359;HTU21D;56520;49.066;8.660;2023-02-22T08:35:27;5.17;88.27
69359;HTU21D;56520;49.066;8.660;2023-02-22T08:37:56;5.34;88.01
69359;HTU21D;56520;49.066;8.660;2023-02-22T08:40:26;5.50;87.68
69359;HTU21D;56520;49.066;8.660;2023-02-22T08:42:52;5.66;87.64
69359;HTU21D;56520;49.066;8.660;2023-02-22T08:45:18;5.87;87.60
69359;HTU21D;56520;49.066;8.660;2023-02-22T08:47:44;6.11;87.43
69359;HTU21D;56520;49.066;8.660;2023-02-22T08:50:16;6.41;87.25
69359;HTU21D;56520;49.066;8.660;2023-02-22T08:52:42;6.66;87.09
69359;HTU21D;56520;49.066;8.660;2023-02-22T08:55:07;6.95;86.95
69359;HTU21D;56520;49.066;8.660;2023-02-22T08:57:33;7.15;86.58
69359;HTU21D;56520;49.066;8.660;2023-02-22T08:59:58;7.32;86.31
69359;HTU21D;56520;49.066;8.660;2023-02-22T09:02:23;7.54;86.53
69359;HTU21D;56520;49.066;8.660;2023-02-22T09:04:49;7.77;86.47
69359;HTU21D;56520;49.066;8.660;2023-02-22T09:07:15;8.01;85.72
69359;HTU21D;56520;49.066;8.660;2023-02-22T09:09:42;8.11;83.78
69359;HTU21D;56520;49.066;8.660;2023-02-22T09:12:08;8.22;83.68
69359;HTU21D;56520;49.066;8.660;2023-02-22T09:14:33;8.34;83.61
69359;HTU21D;56520;49.066;8.660;2023-02-22T09:16:59;8.50;83.01
69359;HTU21D;56520;49.066;8.660;2023-02-22T09:19:25;8.73;81.84
69359;HTU21D;56520;49.066;8.660;2023-02-22T09:21:54;8.87;80.82
69359;HTU21D;56520;49.066;8.660;2023-02-22T09:24:19;9.15;81.14
69359;HTU21D;56520;49.066;8.660;2023-02-22T09:26:46;9.40;79.21
69359;HTU21D;56520;49.066;8.660;2023-02-22T09:29:12;9.63;79.56
69359;HTU21D;56520;49.066;8.660;2023-02-22T09:31:38;10.01;79.52
69359;HTU21D;56520;49.066;8.660;2023-02-22T09:34:05;10.45;78.40
69359;HTU21D;56520;49.066;8.660;2023-02-22T09:36:44;10.63;77.67
69359;HTU21D;56520;49.066;8.660;2023-02-22T09:39:14;10.85;77.31
69359;HTU21D;56520;49.066;8.660;2023-02-22T09:42:10;10.98;76.31
69359;HTU21D;56520;49.066;8.660;2023-02-22T09:47:03;11.40;75.62
69359;HTU21D;56520;49.066;8.660;2023-02-22T09:52:26;11.63;75.20
69359;HTU21D;56520;49.066;8.660;2023-02-22T09:55:24;11.77;74.32
69359;HTU21D;56520;49.066;8.660;2023-02-22T09:57:55;11.71;73.85
69359;HTU21D;56520;49.066;8.660;2023-02-22T10:00:37;11.70;73.25
69359;HTU21D;56520;49.066;8.660;2023-02-22T10:24:31;12.52;69.87
69359;HTU21D;56520;49.066;8.660;2023-02-22T10:27:04;12.42;68.33
69359;HTU21D;56520;49.066;8.660;2023-02-22T10:29:42;12.29;68.83
69359;HTU21D;56520;49.066;8.660;2023-02-22T10:32:26;12.27;68.97
69359;HTU21D;56520;49.066;8.660;2023-02-22T10:34:53;12.34;69.05
69359;HTU21D;56520;49.066;8.660;2023-02-22T10:37:32;12.63;69.16
69359;HTU21D;56520;49.066;8.660;2023-02-22T10:40:27;13.10;66.38
69359;HTU21D;56520;49.066;8.660;2023-02-22T10:43:04;13.46;65.71
69359;HTU21D;56520;49.066;8.660;2023-02-22T10:45:33;13.79;63.21
69359;HTU21D;56520;49.066;8.660;2023-02-22T10:48:03;14.01;61.44
69359;HTU21D;56520;49.066;8.660;2023-02-22T10:50:34;14.13;60.74
69359;HTU21D;56520;49.066;8.660;2023-02-22T10:53:01;14.34;61.38
69359;HTU21D;56520;49.066;8.660;2023-02-22T10:55:32;14.51;59.77
69359;HTU21D;56520;49.066;8.660;2023-02-22T10:58:04;14.45;59.80
69359;HTU21D;56520;49.066;8.660;2023-02-22T11:00:36;14.40;58.45
69359;HTU21D;56520;49.066;8.660;2023-02-22T11:03:16;14.34;60.17
69359;HTU21D;56520;49.066;8.660;2023-02-22T11:05:42;14.35;59.33
69359;HTU21D;56520;49.066;8.660;2023-02-22T11:10:51;14.40;57.96
69359;HTU21D;56520;49.066;8.660;2023-02-22T11:13:30;14.39;57.48
69359;HTU21D;56520;49.066;8.660;2023-02-22T11:16:47;14.36;57.74
69359;HTU21D;56520;49.066;8.660;2023-02-22T11:19:02;14.42;57.07
69359;HTU21D;56520;49.066;8.660;2023-02-22T11:21:30;14.42;57.89
69359;HTU21D;56520;49.066;8.660;2023-02-22T11:24:07;14.40;58.32
69359;HTU21D;56520;49.066;8.660;2023-02-22T11:26:46;14.36;59.25
69359;HTU21D;56520;49.066;8.660;2023-02-22T11:31:50;14.25;58.77
69359;HTU21D;56520;49.066;8.660;2023-02-22T11:34:37;14.06;59.09
69359;HTU21D;56520;49.066;8.660;2023-02-22T11:39:47;13.97;60.05
69359;HTU21D;56520;49.066;8.660;2023-02-22T11:42:24;14.10;60.18
69359;HTU21D;56520;49.066;8.660;2023-02-22T11:48:06;14.23;60.66
69359;HTU21D;56520;49.066;8.660;2023-02-22T11:51:05;14.48;59.81
69359;HTU21D;56520;49.066;8.660;2023-02-22T11:56:34;14.91;57.24
69359;HTU21D;56520;49.066;8.660;2023-02-22T12:01:55;15.16;57.29
69359;HTU21D;56520;49.066;8.660;2023-02-22T12:07:41;15.49;55.25
69359;HTU21D;56520;49.066;8.660;2023-02-22T12:21:26;15.11;55.47
69359;HTU21D;56520;49.066;8.660;2023-02-22T12:24:12;15.10;54.46
69359;HTU21D;56520;49.066;8.660;2023-02-22T12:26:44;15.24;54.56
69359;HTU21D;56520;49.066;8.660;2023-02-22T12:29:25;15.52;52.55
69359;HTU21D;56520;49.066;8.660;2023-02-22T12:32:10;15.61;53.41
69359;HTU21D;56520;49.066;8.660;2023-02-22T12:34:41;15.74;52.78
69359;HTU21D;56520;49.066;8.660;2023-02-22T12:37:19;15.76;51.22
69359;HTU21D;56520;49.066;8.660;2023-02-22T12:42:54;15.92;50.72
69359;HTU21D;56520;49.066;8.660;2023-02-22T12:48:01;15.88;50.22
69359;HTU21D;56520;49.066;8.660;2023-02-22T12:50:34;16.04;48.72
69359;HTU21D;56520;49.066;8.660;2023-02-22T12:53:13;16.26;48.63
69359;HTU21D;56520;49.066;8.660;2023-02-22T12:55:51;16.33;49.91
69359;HTU21D;56520;49.066;8.660;2023-02-22T13:00:56;16.48;48.76
69359;HTU21D;56520;49.066;8.660;2023-02-22T13:03:41;16.61;49.22
69359;HTU21D;56520;49.066;8.660;2023-02-22T13:09:13;16.71;47.31
69359;HTU21D;56520;49.066;8.660;2023-02-22T13:12:08;16.96;46.16
69359;HTU21D;56520;49.066;8.660;2023-02-22T13:20:23;17.48;45.64
69359;HTU21D;56520;49.066;8.660;2023-02-22T13:23:01;17.43;45.42
69359;HTU21D;56520;49.066;8.660;2023-02-22T13:25:42;17.24;45.76
69359;HTU21D;56520;49.066;8.660;2023-02-22T13:28:28;16.89;46.99
69359;HTU21D;56520;49.066;8.660;2023-02-22T13:31:05;16.65;47.78
69359;HTU21D;56520;49.066;8.660;2023-02-22T13:36:37;16.45;48.16
69359;HTU21D;56520;49.066;8.660;2023-02-22T13:39:39;16.30;48.35
69359;HTU21D;56520;49.066;8.660;2023-02-22T13:45:31;16.14;48.53
69359;HTU21D;56520;49.066;8.660;2023-02-22T13:51:08;16.14;46.67
69359;HTU21D;56520;49.066;8.660;2023-02-22T13:53:46;16.02;46.90
69359;HTU21D;56520;49.066;8.660;2023-02-22T13:56:13;15.97;47.92
69359;HTU21D;56520;49.066;8.660;2023-02-22T14:06:45;16.18;48.20
69359;HTU21D;56520;49.066;8.660;2023-02-22T14:09:15;16.18;47.18
69359;HTU21D;56520;49.066;8.660;2023-02-22T14:11:47;16.07;48.02
69359;HTU21D;56520;49.066;8.660;2023-02-22T14:14:19;15.96;48.05
69359;HTU21D;56520;49.066;8.660;2023-02-22T14:17:15;15.93;48.36
69359;HTU21D;56520;49.066;8.660;2023-02-22T14:20:00;15.89;48.92
69359;HTU21D;56520;49.066;8.660;2023-02-22T14:22:27;15.85;49.25
69359;HTU21D;56520;49.066;8.660;2023-02-22T14:24:58;15.91;49.15
69359;HTU21D;56520;49.066;8.660;2023-02-22T14:27:24;15.95;49.53
69359;HTU21D;56520;49.066;8.660;2023-02-22T14:30:02;15.95;49.43
69359;HTU21D;56520;49.066;8.660;2023-02-22T14:32:32;15.88;49.42
69359;HTU21D;56520;49.066;8.660;2023-02-22T14:35:17;15.78;50.08
69359;HTU21D;56520;49.066;8.660;2023-02-22T14:37:58;15.71;50.37
69359;HTU21D;56520;49.066;8.660;2023-02-22T14:43:18;15.67;51.04
69359;HTU21D;56520;49.066;8.660;2023-02-22T14:45:54;15.61;50.96
69359;HTU21D;56520;49.066;8.660;2023-02-22T14:48:29;15.47;51.51
69359;HTU21D;56520;49.066;8.660;2023-02-22T14:51:21;15.34;51.80
69359;HTU21D;56520;49.066;8.660;2023-02-22T14:53:48;15.18;52.12
69359;HTU21D;56520;49.066;8.660;2023-02-22T14:56:24;15.14;52.39
69359;HTU21D;56520;49.066;8.660;2023-02-22T14:58:57;15.12;52.56
69359;HTU21D;56520;49.066;8.660;2023-02-22T15:01:36;15.01;53.01
69359;HTU21D;56520;49.066;8.660;2023-02-22T15:04:24;14.95;54.30
69359;HTU21D;56520;49.066;8.660;2023-02-22T15:06:51;14.93;53.97
69359;HTU21D;56520;49.066;8.660;2023-02-22T15:09:26;14.82;54.60
69359;HTU21D;56520;49.066;8.660;2023-02-22T15:14:28;14.57;55.33
69359;HTU21D;56520;49.066;8.660;2023-02-22T15:16:58;14.48;55.70
69359;HTU21D;56520;49.066;8.660;2023-02-22T15:19:27;14.38;56.29
69359;HTU21D;56520;49.066;8.660;2023-02-22T15:21:55;14.29;56.07
69359;HTU21D;56520;49.066;8.660;2023-02-22T15:24:37;14.17;56.61
69359;HTU21D;56520;49.066;8.660;2023-02-22T15:27:16;14.04;56.95
69359;HTU21D;56520;49.066;8.660;2023-02-22T15:29:43;13.94;57.37
69359;HTU21D;56520;49.066;8.660;2023-02-22T15:37:44;13.69;58.51
69359;HTU21D;56520;49.066;8.660;2023-02-22T15:40:18;13.71;58.48
69359;HTU21D;56520;49.066;8.660;2023-02-22T15:42:52;13.59;58.83
69359;HTU21D;56520;49.066;8.660;2023-02-22T15:45:22;13.43;58.93
69359;HTU21D;56520;49.066;8.660;2023-02-22T15:47:50;13.38;60.21
69359;HTU21D;56520;49.066;8.660;2023-02-22T15:50:33;13.31;60.57
69359;HTU21D;56520;49.066;8.660;2023-02-22T15:55:42;13.15;61.83
69359;HTU21D;56520;49.066;8.660;2023-02-22T15:58:19;13.14;61.89
69359;HTU21D;56520;49.066;8.660;2023-02-22T16:01:09;13.00;62.27
69359;HTU21D;56520;49.066;8.660;2023-02-22T16:03:49;12.96;62.24
69359;HTU21D;56520;49.066;8.660;2023-02-22T16:06:46;12.88;62.41
69359;HTU21D;56520;49.066;8.660;2023-02-22T16:09:20;12.76;62.89
69359;HTU21D;56520;49.066;8.660;2023-02-22T16:11:51;12.66;63.34
69359;HTU21D;56520;49.066;8.660;2023-02-22T16:22:36;12.46;64.05
69359;HTU21D;56520;49.066;8.660;2023-02-22T16:27:45;12.29;64.34
69359;HTU21D;56520;49.066;8.660;2023-02-22T16:32:46;12.13;64.62
69359;HTU21D;56520;49.066;8.660;2023-02-22T16:35:12;12.04;64.95
69359;HTU21D;56520;49.066;8.660;2023-02-22T16:37:50;11.98;65.05
69359;HTU21D;56520;49.066;8.660;2023-02-22T16:40:21;11.93;65.08
69359;HTU21D;56520;49.066;8.660;2023-02-22T16:42:47;11.88;65.15
69359;HTU21D;56520;49.066;8.660;2023-02-22T16:45:20;11.83;65.46
69359;HTU21D;56520;49.066;8.660;2023-02-22T16:47:46;11.84;64.92
69359;HTU21D;56520;49.066;8.660;2023-02-22T16:50:13;11.78;65.28
69359;HTU21D;56520;49.066;8.660;2023-02-22T16:52:39;11.68;65.66
69359;HTU21D;56520;49.066;8.660;2023-02-22T16:55:08;11.56;66.13
69359;HTU21D;56520;49.066;8.660;2023-02-22T16:57:34;11.46;66.37
69359;HTU21D;56520;49.066;8.660;2023-02-22T17:00:30;11.33;66.78
69359;HTU21D;56520;49.066;8.660;2023-02-22T17:03:03;11.20;67.49
69359;HTU21D;56520;49.066;8.660;2023-02-22T17:05:32;11.17;67.20
69359;HTU21D;56520;49.066;8.660;2023-02-22T17:08:02;11.15;67.70
69359;HTU21D;56520;49.066;8.660;2023-02-22T17:10:27;11.12;68.02
69359;HTU21D;56520;49.066;8.660;2023-02-22T17:12:53;11.10;68.38
69359;HTU21D;56520;49.066;8.660;2023-02-22T17:15:27;11.10;68.60
69359;HTU21D;56520;49.066;8.660;2023-02-22T17:17:55;11.00;68.54
69359;HTU21D;56520;49.066;8.660;2023-02-22T17:20:22;10.94;69.05
69359;HTU21D;56520;49.066;8.660;2023-02-22T17:23:05;10.94;69.06
69359;HTU21D;56520;49.066;8.660;2023-02-22T17:25:42;10.89;69.34
69359;HTU21D;56520;49.066;8.660;2023-02-22T17:28:15;10.83;69.33
69359;HTU21D;56520;49.066;8.660;2023-02-22T17:30:46;10.75;70.18
69359;HTU21D;56520;49.066;8.660;2023-02-22T17:33:18;10.73;70.12
69359;HTU21D;56520;49.066;8.660;2023-02-22T17:35:45;10.75;70.04
69359;HTU21D;56520;49.066;8.660;2023-02-22T17:38:20;10.70;70.34
69359;HTU21D;56520;49.066;8.660;2023-02-22T17:41:01;10.66;70.25
69359;HTU21D;56520;49.066;8.660;2023-02-22T17:43:30;10.55;70.61
69359;HTU21D;56520;49.066;8.660;2023-02-22T17:45:56;10.48;70.56
69359;HTU21D;56520;49.066;8.660;2023-02-22T17:48:21;10.39;71.48
69359;HTU21D;56520;49.066;8.660;2023-02-22T17:50:47;10.33;71.48
69359;HTU21D;56520;49.066;8.660;2023-02-22T17:53:14;10.26;71.48
69359;HTU21D;56520;49.066;8.660;2023-02-22T17:55:41;10.21;71.61
69359;HTU21D;56520;49.066;8.660;2023-02-22T17:58:09;10.16;71.65
69359;HTU21D;56520;49.066;8.660;2023-02-22T18:00:40;10.16;72.83
69359;HTU21D;56520;49.066;8.660;2023-02-22T18:03:12;10.08;72.35
69359;HTU21D;56520;49.066;8.660;2023-02-22T18:05:45;10.00;72.34
69359;HTU21D;56520;49.066;8.660;2023-02-22T18:08:11;9.95;73.03
69359;HTU21D;56520;49.066;8.660;2023-02-22T18:10:38;9.91;72.90
69359;HTU21D;56520;49.066;8.660;2023-02-22T18:13:04;9.89;73.15
69359;HTU21D;56520;49.066;8.660;2023-02-22T18:15:30;9.86;73.08
69359;HTU21D;56520;49.066;8.660;2023-02-22T18:18:00;9.82;73.16
69359;HTU21D;56520;49.066;8.660;2023-02-22T18:20:26;9.79;73.26
69359;HTU21D;56520;49.066;8.660;2023-02-22T18:22:58;9.77;73.60
69359;HTU21D;56520;49.066;8.660;2023-02-22T18:25:25;9.71;73.77